sensor_id;sensor_type;location;lat;lon;timestamp;P1;durP1;ratioP1;P2;durP2;ratioP2
3949;SDS011;53057;50.988;6.314;2024-03-25T00:00:22;36.27;;;9.20;;
3949;SDS011;53057;50.988;6.314;2024-03-25T00:02:51;33.27;;;9.80;;
3949;SDS011;53057;50.988;6.314;2024-03-25T00:05:16;17.53;;;9.87;;
3949;SDS011;53057;50.988;6.314;2024-03-25T00:07:49;28.50;;;8.90;;
3949;SDS011;53057;50.988;6.314;2024-03-25T00:10:15;25.97;;;10.80;;
3949;SDS011;53057;50.988;6.314;2024-03-25T00:12:41;24.20;;;8.67;;
3949;SDS011;53057;50.988;6.314;2024-03-25T00:15:07;42.23;;;10.60;;
3949;SDS011;53057;50.988;6.314;2024-03-25T00:17:33;32.37;;;11.80;;
3949;SDS011;53057;50.988;6.314;2024-03-25T00:19:59;30.57;;;10.20;;
3949;SDS011;53057;50.988;6.314;2024-03-25T00:22:26;34.53;;;10.10;;
3949;SDS011;53057;50.988;6.314;2024-03-25T00:24:53;36.23;;;10.40;;
3949;SDS011;53057;50.988;6.314;2024-03-25T00:27:19;40.07;;;9.87;;
3949;SDS011;53057;50.988;6.314;2024-03-25T00:29:45;29.73;;;9.67;;
3949;SDS011;53057;50.988;6.314;2024-03-25T00:32:12;34.77;;;10.63;;
3949;SDS011;53057;50.988;6.314;2024-03-25T00:34:38;22.73;;;9.73;;
3949;SDS011;53057;50.988;6.314;2024-03-25T00:37:04;24.30;;;10.00;;
3949;SDS011;53057;50.988;6.314;2024-03-25T00:39:30;33.77;;;9.90;;
3949;SDS011;53057;50.988;6.314;2024-03-25T00:42:00;46.60;;;11.33;;
3949;SDS011;53057;50.988;6.314;2024-03-25T00:44:26;44.20;;;10.40;;
3949;SDS011;53057;50.988;6.314;2024-03-25T00:46:52;39.30;;;10.60;;
3949;SDS011;53057;50.988;6.314;2024-03-25T00:49:19;32.10;;;9.70;;
3949;SDS011;53057;50.988;6.314;2024-03-25T00:51:47;37.87;;;9.17;;
3949;SDS011;53057;50.988;6.314;2024-03-25T00:54:12;37.90;;;9.83;;
3949;SDS011;53057;50.988;6.314;2024-03-25T00:56:39;41.83;;;9.67;;
3949;SDS011;53057;50.988;6.314;2024-03-25T00:59:05;32.17;;;10.03;;
3949;SDS011;53057;50.988;6.314;2024-03-25T01:01:32;37.30;;;11.87;;
3949;SDS011;53057;50.988;6.314;2024-03-25T01:03:58;36.50;;;10.93;;
3949;SDS011;53057;50.988;6.314;2024-03-25T01:06:24;33.23;;;10.87;;
3949;SDS011;53057;50.988;6.314;2024-03-25T01:08:50;41.80;;;13.77;;
3949;SDS011;53057;50.988;6.314;2024-03-25T01:11:16;40.20;;;10.97;;
3949;SDS011;53057;50.988;6.314;2024-03-25T01:13:42;43.50;;;10.45;;
3949;SDS011;53057;50.988;6.314;2024-03-25T01:16:09;35.80;;;10.50;;
3949;SDS011;53057;50.988;6.314;2024-03-25T01:18:35;29.00;;;11.80;;
3949;SDS011;53057;50.988;6.314;2024-03-25T01:21:02;21.87;;;10.23;;
3949;SDS011;53057;50.988;6.314;2024-03-25T01:23:28;31.13;;;11.27;;
3949;SDS011;53057;50.988;6.314;2024-03-25T01:25:55;40.10;;;10.53;;
3949;SDS011;53057;50.988;6.314;2024-03-25T01:28:20;29.10;;;10.87;;
3949;SDS011;53057;50.988;6.314;2024-03-25T01:30:47;35.93;;;9.90;;
3949;SDS011;53057;50.988;6.314;2024-03-25T01:33:14;34.13;;;11.43;;
3949;SDS011;53057;50.988;6.314;2024-03-25T01:35:40;36.83;;;10.97;;
3949;SDS011;53057;50.988;6.314;2024-03-25T01:38:06;38.23;;;10.80;;
3949;SDS011;53057;50.988;6.314;2024-03-25T01:40:33;20.20;;;10.00;;
3949;SDS011;53057;50.988;6.314;2024-03-25T01:43:00;32.77;;;10.10;;
3949;SDS011;53057;50.988;6.314;2024-03-25T01:45:27;32.83;;;9.10;;
3949;SDS011;53057;50.988;6.314;2024-03-25T01:47:54;39.83;;;10.60;;
3949;SDS011;53057;50.988;6.314;2024-03-25T01:50:20;43.90;;;11.57;;
3949;SDS011;53057;50.988;6.314;2024-03-25T01:52:48;31.33;;;10.07;;
3949;SDS011;53057;50.988;6.314;2024-03-25T01:55:18;34.70;;;9.67;;
3949;SDS011;53057;50.988;6.314;2024-03-25T01:57:44;29.33;;;9.40;;
3949;SDS011;53057;50.988;6.314;2024-03-25T02:00:10;27.43;;;9.03;;
3949;SDS011;53057;50.988;6.314;2024-03-25T02:02:45;37.60;;;11.90;;
3949;SDS011;53057;50.988;6.314;2024-03-25T02:05:13;44.53;;;10.50;;
3949;SDS011;53057;50.988;6.314;2024-03-25T02:07:41;35.80;;;11.13;;
3949;SDS011;53057;50.988;6.314;2024-03-25T02:10:08;39.40;;;11.70;;
3949;SDS011;53057;50.988;6.314;2024-03-25T02:12:43;53.53;;;12.70;;
3949;SDS011;53057;50.988;6.314;2024-03-25T02:15:09;33.70;;;9.90;;
3949;SDS011;53057;50.988;6.314;2024-03-25T02:17:35;36.70;;;10.73;;
3949;SDS011;53057;50.988;6.314;2024-03-25T02:20:01;36.00;;;9.10;;
3949;SDS011;53057;50.988;6.314;2024-03-25T02:22:29;33.90;;;9.70;;
3949;SDS011;53057;50.988;6.314;2024-03-25T02:24:57;36.63;;;10.33;;
3949;SDS011;53057;50.988;6.314;2024-03-25T02:27:26;37.40;;;10.03;;
3949;SDS011;53057;50.988;6.314;2024-03-25T02:30:04;26.27;;;10.00;;
3949;SDS011;53057;50.988;6.314;2024-03-25T02:32:31;30.53;;;10.40;;
3949;SDS011;53057;50.988;6.314;2024-03-25T02:34:57;45.03;;;10.53;;
3949;SDS011;53057;50.988;6.314;2024-03-25T02:37:24;33.10;;;9.80;;
3949;SDS011;53057;50.988;6.314;2024-03-25T02:39:51;38.27;;;11.30;;
3949;SDS011;53057;50.988;6.314;2024-03-25T02:42:18;58.07;;;11.17;;
3949;SDS011;53057;50.988;6.314;2024-03-25T02:44:44;40.57;;;10.10;;
3949;SDS011;53057;50.988;6.314;2024-03-25T02:47:11;32.60;;;10.87;;
3949;SDS011;53057;50.988;6.314;2024-03-25T02:49:37;52.40;;;10.97;;
3949;SDS011;53057;50.988;6.314;2024-03-25T02:52:04;34.77;;;10.43;;
3949;SDS011;53057;50.988;6.314;2024-03-25T02:54:30;32.60;;;11.33;;
3949;SDS011;53057;50.988;6.314;2024-03-25T02:56:58;33.83;;;11.57;;
3949;SDS011;53057;50.988;6.314;2024-03-25T02:59:24;44.10;;;10.17;;
3949;SDS011;53057;50.988;6.314;2024-03-25T03:01:51;29.63;;;11.23;;
3949;SDS011;53057;50.988;6.314;2024-03-25T03:04:17;39.67;;;12.30;;
3949;SDS011;53057;50.988;6.314;2024-03-25T03:06:43;34.17;;;12.30;;
3949;SDS011;53057;50.988;6.314;2024-03-25T03:09:10;50.17;;;12.97;;
3949;SDS011;53057;50.988;6.314;2024-03-25T03:11:36;36.50;;;12.77;;
3949;SDS011;53057;50.988;6.314;2024-03-25T03:14:02;38.93;;;10.63;;
3949;SDS011;53057;50.988;6.314;2024-03-25T03:16:28;35.17;;;11.97;;
3949;SDS011;53057;50.988;6.314;2024-03-25T03:18:55;44.80;;;13.33;;
3949;SDS011;53057;50.988;6.314;2024-03-25T03:21:20;46.70;;;16.13;;
3949;SDS011;53057;50.988;6.314;2024-03-25T03:23:47;63.60;;;14.37;;
3949;SDS011;53057;50.988;6.314;2024-03-25T03:26:14;48.10;;;12.37;;
3949;SDS011;53057;50.988;6.314;2024-03-25T03:28:40;44.20;;;14.30;;
3949;SDS011;53057;50.988;6.314;2024-03-25T03:31:06;50.40;;;13.33;;
3949;SDS011;53057;50.988;6.314;2024-03-25T03:33:32;51.43;;;14.10;;
3949;SDS011;53057;50.988;6.314;2024-03-25T03:35:58;39.03;;;12.93;;
3949;SDS011;53057;50.988;6.314;2024-03-25T03:38:24;51.50;;;16.13;;
3949;SDS011;53057;50.988;6.314;2024-03-25T03:40:57;40.47;;;15.20;;
3949;SDS011;53057;50.988;6.314;2024-03-25T03:43:23;36.17;;;13.33;;
3949;SDS011;53057;50.988;6.314;2024-03-25T03:45:49;52.17;;;13.50;;
3949;SDS011;53057;50.988;6.314;2024-03-25T03:48:15;65.93;;;15.40;;
3949;SDS011;53057;50.988;6.314;2024-03-25T03:50:42;52.43;;;14.93;;
3949;SDS011;53057;50.988;6.314;2024-03-25T03:53:09;36.30;;;13.93;;
3949;SDS011;53057;50.988;6.314;2024-03-25T03:55:35;42.50;;;14.70;;
3949;SDS011;53057;50.988;6.314;2024-03-25T03:58:01;41.37;;;13.93;;
3949;SDS011;53057;50.988;6.314;2024-03-25T04:00:27;43.30;;;14.63;;
3949;SDS011;53057;50.988;6.314;2024-03-25T04:02:53;56.20;;;14.17;;
3949;SDS011;53057;50.988;6.314;2024-03-25T04:05:19;41.40;;;12.73;;
3949;SDS011;53057;50.988;6.314;2024-03-25T04:07:45;54.47;;;14.80;;
3949;SDS011;53057;50.988;6.314;2024-03-25T04:10:11;62.47;;;13.73;;
3949;SDS011;53057;50.988;6.314;2024-03-25T04:12:38;61.27;;;14.60;;
3949;SDS011;53057;50.988;6.314;2024-03-25T04:15:05;53.53;;;13.40;;
3949;SDS011;53057;50.988;6.314;2024-03-25T04:17:32;40.63;;;12.90;;
3949;SDS011;53057;50.988;6.314;2024-03-25T04:20:01;48.57;;;14.10;;
3949;SDS011;53057;50.988;6.314;2024-03-25T04:22:27;42.17;;;14.60;;
3949;SDS011;53057;50.988;6.314;2024-03-25T04:24:53;60.27;;;16.53;;
3949;SDS011;53057;50.988;6.314;2024-03-25T04:27:20;55.50;;;14.20;;
3949;SDS011;53057;50.988;6.314;2024-03-25T04:29:48;62.90;;;15.33;;
3949;SDS011;53057;50.988;6.314;2024-03-25T04:32:14;38.73;;;14.27;;
3949;SDS011;53057;50.988;6.314;2024-03-25T04:34:40;45.03;;;14.87;;
3949;SDS011;53057;50.988;6.314;2024-03-25T04:37:07;41.00;;;15.67;;
3949;SDS011;53057;50.988;6.314;2024-03-25T04:39:33;58.10;;;16.23;;
3949;SDS011;53057;50.988;6.314;2024-03-25T04:42:00;39.03;;;16.70;;
3949;SDS011;53057;50.988;6.314;2024-03-25T04:44:27;57.13;;;17.80;;
3949;SDS011;53057;50.988;6.314;2024-03-25T04:46:53;40.93;;;16.50;;
3949;SDS011;53057;50.988;6.314;2024-03-25T04:49:18;61.47;;;20.77;;
3949;SDS011;53057;50.988;6.314;2024-03-25T04:51:44;49.60;;;16.40;;
3949;SDS011;53057;50.988;6.314;2024-03-25T04:54:11;51.10;;;17.10;;
3949;SDS011;53057;50.988;6.314;2024-03-25T04:56:38;50.80;;;18.07;;
3949;SDS011;53057;50.988;6.314;2024-03-25T04:59:05;46.83;;;18.90;;
3949;SDS011;53057;50.988;6.314;2024-03-25T05:01:31;52.00;;;18.03;;
3949;SDS011;53057;50.988;6.314;2024-03-25T05:03:58;56.80;;;18.23;;
3949;SDS011;53057;50.988;6.314;2024-03-25T05:06:24;69.03;;;18.70;;
3949;SDS011;53057;50.988;6.314;2024-03-25T05:08:53;48.30;;;15.77;;
3949;SDS011;53057;50.988;6.314;2024-03-25T05:11:18;58.10;;;29.60;;
3949;SDS011;53057;50.988;6.314;2024-03-25T05:13:44;64.87;;;28.37;;
3949;SDS011;53057;50.988;6.314;2024-03-25T05:16:10;54.90;;;22.50;;
3949;SDS011;53057;50.988;6.314;2024-03-25T05:18:37;64.53;;;19.40;;
3949;SDS011;53057;50.988;6.314;2024-03-25T05:21:03;48.60;;;18.83;;
3949;SDS011;53057;50.988;6.314;2024-03-25T05:23:29;61.93;;;19.03;;
3949;SDS011;53057;50.988;6.314;2024-03-25T05:25:54;52.33;;;18.70;;
3949;SDS011;53057;50.988;6.314;2024-03-25T05:28:21;57.73;;;18.80;;
3949;SDS011;53057;50.988;6.314;2024-03-25T05:30:48;71.00;;;21.33;;
3949;SDS011;53057;50.988;6.314;2024-03-25T05:33:16;58.47;;;21.30;;
3949;SDS011;53057;50.988;6.314;2024-03-25T05:35:43;59.23;;;25.13;;
3949;SDS011;53057;50.988;6.314;2024-03-25T05:38:09;46.20;;;22.37;;
3949;SDS011;53057;50.988;6.314;2024-03-25T05:40:36;50.67;;;23.53;;
3949;SDS011;53057;50.988;6.314;2024-03-25T05:43:02;71.00;;;23.43;;
3949;SDS011;53057;50.988;6.314;2024-03-25T05:45:28;47.70;;;20.50;;
3949;SDS011;53057;50.988;6.314;2024-03-25T05:47:53;66.23;;;20.33;;
3949;SDS011;53057;50.988;6.314;2024-03-25T05:50:19;39.67;;;17.40;;
3949;SDS011;53057;50.988;6.314;2024-03-25T05:52:45;34.60;;;14.93;;
3949;SDS011;53057;50.988;6.314;2024-03-25T05:55:11;40.23;;;14.10;;
3949;SDS011;53057;50.988;6.314;2024-03-25T05:57:37;38.97;;;15.43;;
3949;SDS011;53057;50.988;6.314;2024-03-25T06:00:03;36.77;;;14.20;;
3949;SDS011;53057;50.988;6.314;2024-03-25T06:02:37;41.47;;;13.30;;
3949;SDS011;53057;50.988;6.314;2024-03-25T06:05:04;28.17;;;12.00;;
3949;SDS011;53057;50.988;6.314;2024-03-25T06:07:31;38.93;;;15.73;;
3949;SDS011;53057;50.988;6.314;2024-03-25T06:09:57;28.67;;;12.33;;
3949;SDS011;53057;50.988;6.314;2024-03-25T06:12:24;28.73;;;12.73;;
3949;SDS011;53057;50.988;6.314;2024-03-25T06:14:50;22.33;;;12.07;;
3949;SDS011;53057;50.988;6.314;2024-03-25T06:17:17;30.43;;;14.83;;
3949;SDS011;53057;50.988;6.314;2024-03-25T06:19:44;29.00;;;18.30;;
3949;SDS011;53057;50.988;6.314;2024-03-25T06:22:10;30.47;;;9.80;;
3949;SDS011;53057;50.988;6.314;2024-03-25T06:24:36;26.43;;;10.57;;
3949;SDS011;53057;50.988;6.314;2024-03-25T06:27:02;116.33;;;49.73;;
3949;SDS011;53057;50.988;6.314;2024-03-25T06:29:30;119.33;;;58.37;;
3949;SDS011;53057;50.988;6.314;2024-03-25T06:31:56;84.43;;;42.93;;
3949;SDS011;53057;50.988;6.314;2024-03-25T06:34:40;50.23;;;26.70;;
3949;SDS011;53057;50.988;6.314;2024-03-25T06:37:08;59.30;;;37.93;;
3949;SDS011;53057;50.988;6.314;2024-03-25T06:39:34;39.43;;;28.87;;
3949;SDS011;53057;50.988;6.314;2024-03-25T06:42:00;39.20;;;27.40;;
3949;SDS011;53057;50.988;6.314;2024-03-25T06:44:26;85.73;;;69.50;;
3949;SDS011;53057;50.988;6.314;2024-03-25T06:46:52;39.77;;;21.33;;
3949;SDS011;53057;50.988;6.314;2024-03-25T06:49:18;31.13;;;14.30;;
3949;SDS011;53057;50.988;6.314;2024-03-25T06:51:44;28.60;;;16.03;;
3949;SDS011;53057;50.988;6.314;2024-03-25T06:54:10;30.40;;;15.80;;
3949;SDS011;53057;50.988;6.314;2024-03-25T06:56:37;48.23;;;30.20;;
3949;SDS011;53057;50.988;6.314;2024-03-25T06:59:03;20.20;;;12.83;;
3949;SDS011;53057;50.988;6.314;2024-03-25T07:01:29;22.77;;;14.57;;
3949;SDS011;53057;50.988;6.314;2024-03-25T07:03:56;26.70;;;12.80;;
3949;SDS011;53057;50.988;6.314;2024-03-25T07:06:22;31.60;;;18.80;;
3949;SDS011;53057;50.988;6.314;2024-03-25T07:08:48;30.73;;;12.93;;
3949;SDS011;53057;50.988;6.314;2024-03-25T07:11:15;26.63;;;16.40;;
3949;SDS011;53057;50.988;6.314;2024-03-25T07:13:42;30.50;;;12.97;;
3949;SDS011;53057;50.988;6.314;2024-03-25T07:16:08;30.50;;;15.70;;
3949;SDS011;53057;50.988;6.314;2024-03-25T07:18:34;34.53;;;14.40;;
3949;SDS011;53057;50.988;6.314;2024-03-25T07:21:01;27.10;;;12.83;;
3949;SDS011;53057;50.988;6.314;2024-03-25T07:23:26;38.73;;;17.30;;
3949;SDS011;53057;50.988;6.314;2024-03-25T07:25:52;40.20;;;16.33;;
3949;SDS011;53057;50.988;6.314;2024-03-25T07:28:18;40.70;;;17.73;;
3949;SDS011;53057;50.988;6.314;2024-03-25T07:30:44;36.63;;;18.37;;
3949;SDS011;53057;50.988;6.314;2024-03-25T07:33:12;30.93;;;15.80;;
3949;SDS011;53057;50.988;6.314;2024-03-25T07:35:38;37.90;;;18.60;;
3949;SDS011;53057;50.988;6.314;2024-03-25T07:38:04;39.23;;;19.90;;
3949;SDS011;53057;50.988;6.314;2024-03-25T07:40:30;41.87;;;19.00;;
3949;SDS011;53057;50.988;6.314;2024-03-25T07:42:56;34.90;;;18.73;;
3949;SDS011;53057;50.988;6.314;2024-03-25T07:45:22;39.40;;;17.43;;
3949;SDS011;53057;50.988;6.314;2024-03-25T07:47:48;41.40;;;24.33;;
3949;SDS011;53057;50.988;6.314;2024-03-25T07:50:15;54.60;;;25.10;;
3949;SDS011;53057;50.988;6.314;2024-03-25T07:52:41;43.60;;;23.40;;
3949;SDS011;53057;50.988;6.314;2024-03-25T07:55:08;63.60;;;36.33;;
3949;SDS011;53057;50.988;6.314;2024-03-25T07:57:34;53.63;;;25.30;;
3949;SDS011;53057;50.988;6.314;2024-03-25T08:00:00;50.87;;;21.20;;
3949;SDS011;53057;50.988;6.314;2024-03-25T08:02:27;50.20;;;21.80;;
3949;SDS011;53057;50.988;6.314;2024-03-25T08:04:53;43.37;;;21.57;;
3949;SDS011;53057;50.988;6.314;2024-03-25T08:07:20;45.00;;;19.63;;
3949;SDS011;53057;50.988;6.314;2024-03-25T08:09:47;34.10;;;17.40;;
3949;SDS011;53057;50.988;6.314;2024-03-25T08:12:13;39.63;;;17.93;;
3949;SDS011;53057;50.988;6.314;2024-03-25T08:14:39;35.70;;;16.00;;
3949;SDS011;53057;50.988;6.314;2024-03-25T08:17:05;41.07;;;25.20;;
3949;SDS011;53057;50.988;6.314;2024-03-25T08:19:30;36.87;;;17.57;;
3949;SDS011;53057;50.988;6.314;2024-03-25T08:21:57;36.90;;;19.73;;
3949;SDS011;53057;50.988;6.314;2024-03-25T08:24:24;54.87;;;32.80;;
3949;SDS011;53057;50.988;6.314;2024-03-25T08:26:49;43.03;;;22.47;;
3949;SDS011;53057;50.988;6.314;2024-03-25T08:29:15;41.70;;;24.10;;
3949;SDS011;53057;50.988;6.314;2024-03-25T08:31:41;45.20;;;22.43;;
3949;SDS011;53057;50.988;6.314;2024-03-25T08:34:07;58.67;;;31.10;;
3949;SDS011;53057;50.988;6.314;2024-03-25T08:36:33;41.77;;;22.77;;
3949;SDS011;53057;50.988;6.314;2024-03-25T08:38:59;30.80;;;14.73;;
3949;SDS011;53057;50.988;6.314;2024-03-25T08:41:25;33.37;;;19.17;;
3949;SDS011;53057;50.988;6.314;2024-03-25T08:43:51;36.80;;;17.80;;
3949;SDS011;53057;50.988;6.314;2024-03-25T08:46:17;41.83;;;18.63;;
3949;SDS011;53057;50.988;6.314;2024-03-25T08:48:43;34.60;;;19.73;;
3949;SDS011;53057;50.988;6.314;2024-03-25T08:51:09;43.90;;;23.53;;
3949;SDS011;53057;50.988;6.314;2024-03-25T08:53:35;47.83;;;27.13;;
3949;SDS011;53057;50.988;6.314;2024-03-25T08:56:02;33.50;;;20.50;;
3949;SDS011;53057;50.988;6.314;2024-03-25T08:58:28;46.63;;;29.40;;
3949;SDS011;53057;50.988;6.314;2024-03-25T09:00:54;28.23;;;14.70;;
3949;SDS011;53057;50.988;6.314;2024-03-25T09:03:20;26.63;;;13.43;;
3949;SDS011;53057;50.988;6.314;2024-03-25T09:05:47;25.03;;;12.87;;
3949;SDS011;53057;50.988;6.314;2024-03-25T09:08:13;20.53;;;13.70;;
3949;SDS011;53057;50.988;6.314;2024-03-25T09:10:39;30.20;;;12.40;;
3949;SDS011;53057;50.988;6.314;2024-03-25T09:13:23;23.90;;;12.57;;
3949;SDS011;53057;50.988;6.314;2024-03-25T09:15:49;28.50;;;14.40;;
3949;SDS011;53057;50.988;6.314;2024-03-25T09:18:19;33.03;;;13.10;;
3949;SDS011;53057;50.988;6.314;2024-03-25T09:20:45;28.97;;;12.20;;
3949;SDS011;53057;50.988;6.314;2024-03-25T09:23:11;17.87;;;10.27;;
3949;SDS011;53057;50.988;6.314;2024-03-25T09:25:37;27.90;;;14.63;;
3949;SDS011;53057;50.988;6.314;2024-03-25T09:28:03;22.40;;;10.43;;
3949;SDS011;53057;50.988;6.314;2024-03-25T09:30:29;20.77;;;13.00;;
3949;SDS011;53057;50.988;6.314;2024-03-25T09:32:55;18.07;;;10.80;;
3949;SDS011;53057;50.988;6.314;2024-03-25T09:35:21;18.80;;;8.77;;
3949;SDS011;53057;50.988;6.314;2024-03-25T09:37:47;18.83;;;8.67;;
3949;SDS011;53057;50.988;6.314;2024-03-25T09:40:13;19.30;;;9.70;;
3949;SDS011;53057;50.988;6.314;2024-03-25T09:42:48;23.07;;;9.60;;
3949;SDS011;53057;50.988;6.314;2024-03-25T09:45:17;14.27;;;9.07;;
3949;SDS011;53057;50.988;6.314;2024-03-25T09:47:45;16.13;;;9.40;;
3949;SDS011;53057;50.988;6.314;2024-03-25T09:50:15;21.70;;;8.43;;
3949;SDS011;53057;50.988;6.314;2024-03-25T09:52:50;14.40;;;8.20;;
3949;SDS011;53057;50.988;6.314;2024-03-25T09:55:16;19.03;;;9.07;;
3949;SDS011;53057;50.988;6.314;2024-03-25T09:57:43;15.70;;;6.73;;
3949;SDS011;53057;50.988;6.314;2024-03-25T10:00:10;10.53;;;6.37;;
3949;SDS011;53057;50.988;6.314;2024-03-25T10:02:41;13.90;;;6.67;;
3949;SDS011;53057;50.988;6.314;2024-03-25T10:05:07;16.33;;;7.60;;
3949;SDS011;53057;50.988;6.314;2024-03-25T10:07:33;12.27;;;6.30;;
3949;SDS011;53057;50.988;6.314;2024-03-25T10:10:09;12.20;;;5.83;;
3949;SDS011;53057;50.988;6.314;2024-03-25T10:12:35;8.77;;;5.23;;
3949;SDS011;53057;50.988;6.314;2024-03-25T10:15:02;6.60;;;3.50;;
3949;SDS011;53057;50.988;6.314;2024-03-25T10:17:30;10.80;;;5.30;;
3949;SDS011;53057;50.988;6.314;2024-03-25T10:19:56;4.20;;;3.40;;
3949;SDS011;53057;50.988;6.314;2024-03-25T10:22:22;9.20;;;3.43;;
3949;SDS011;53057;50.988;6.314;2024-03-25T10:24:48;14.03;;;6.40;;
3949;SDS011;53057;50.988;6.314;2024-03-25T10:27:21;14.50;;;6.03;;
3949;SDS011;53057;50.988;6.314;2024-03-25T10:29:48;9.03;;;4.60;;
3949;SDS011;53057;50.988;6.314;2024-03-25T10:32:15;8.03;;;3.57;;
3949;SDS011;53057;50.988;6.314;2024-03-25T10:34:41;16.67;;;5.33;;
3949;SDS011;53057;50.988;6.314;2024-03-25T10:37:08;7.07;;;4.27;;
3949;SDS011;53057;50.988;6.314;2024-03-25T10:39:36;11.03;;;4.77;;
3949;SDS011;53057;50.988;6.314;2024-03-25T10:42:04;10.63;;;2.90;;
3949;SDS011;53057;50.988;6.314;2024-03-25T10:44:31;16.50;;;5.67;;
3949;SDS011;53057;50.988;6.314;2024-03-25T10:47:01;12.40;;;3.73;;
3949;SDS011;53057;50.988;6.314;2024-03-25T10:49:33;16.33;;;4.13;;
3949;SDS011;53057;50.988;6.314;2024-03-25T10:52:00;16.30;;;6.27;;
3949;SDS011;53057;50.988;6.314;2024-03-25T10:54:28;14.10;;;5.47;;
3949;SDS011;53057;50.988;6.314;2024-03-25T10:56:56;33.60;;;18.00;;
3949;SDS011;53057;50.988;6.314;2024-03-25T10:59:25;10.50;;;3.03;;
3949;SDS011;53057;50.988;6.314;2024-03-25T11:01:53;9.73;;;4.80;;
3949;SDS011;53057;50.988;6.314;2024-03-25T11:04:23;12.10;;;3.30;;
3949;SDS011;53057;50.988;6.314;2024-03-25T11:06:50;6.70;;;2.90;;
3949;SDS011;53057;50.988;6.314;2024-03-25T11:09:22;10.13;;;3.47;;
3949;SDS011;53057;50.988;6.314;2024-03-25T11:11:53;10.53;;;3.37;;
3949;SDS011;53057;50.988;6.314;2024-03-25T11:14:19;12.03;;;4.07;;
3949;SDS011;53057;50.988;6.314;2024-03-25T11:16:52;18.93;;;5.33;;
3949;SDS011;53057;50.988;6.314;2024-03-25T11:19:18;8.80;;;4.50;;
3949;SDS011;53057;50.988;6.314;2024-03-25T11:21:45;5.07;;;3.10;;
3949;SDS011;53057;50.988;6.314;2024-03-25T11:24:11;6.17;;;2.90;;
3949;SDS011;53057;50.988;6.314;2024-03-25T11:26:41;6.40;;;3.80;;
3949;SDS011;53057;50.988;6.314;2024-03-25T11:29:07;10.00;;;4.23;;
3949;SDS011;53057;50.988;6.314;2024-03-25T11:31:33;11.43;;;4.53;;
3949;SDS011;53057;50.988;6.314;2024-03-25T11:34:05;11.63;;;3.10;;
3949;SDS011;53057;50.988;6.314;2024-03-25T11:36:33;9.20;;;2.93;;
3949;SDS011;53057;50.988;6.314;2024-03-25T11:41:27;9.93;;;4.10;;
3949;SDS011;53057;50.988;6.314;2024-03-25T11:43:53;12.77;;;3.60;;
3949;SDS011;53057;50.988;6.314;2024-03-25T11:46:19;11.83;;;3.53;;
3949;SDS011;53057;50.988;6.314;2024-03-25T11:48:45;9.87;;;3.40;;
3949;SDS011;53057;50.988;6.314;2024-03-25T11:51:12;7.90;;;4.07;;
3949;SDS011;53057;50.988;6.314;2024-03-25T11:53:38;6.67;;;4.00;;
3949;SDS011;53057;50.988;6.314;2024-03-25T11:56:05;8.27;;;3.97;;
3949;SDS011;53057;50.988;6.314;2024-03-25T11:58:32;14.13;;;3.67;;
3949;SDS011;53057;50.988;6.314;2024-03-25T12:00:58;9.03;;;3.73;;
3949;SDS011;53057;50.988;6.314;2024-03-25T12:03:25;7.90;;;2.80;;
3949;SDS011;53057;50.988;6.314;2024-03-25T12:05:53;5.10;;;2.83;;
3949;SDS011;53057;50.988;6.314;2024-03-25T12:08:19;6.77;;;3.07;;
3949;SDS011;53057;50.988;6.314;2024-03-25T12:10:45;13.17;;;4.57;;
3949;SDS011;53057;50.988;6.314;2024-03-25T12:13:30;6.50;;;2.60;;
3949;SDS011;53057;50.988;6.314;2024-03-25T12:15:56;8.53;;;3.70;;
3949;SDS011;53057;50.988;6.314;2024-03-25T12:18:22;5.50;;;2.77;;
3949;SDS011;53057;50.988;6.314;2024-03-25T12:20:48;8.43;;;2.70;;
3949;SDS011;53057;50.988;6.314;2024-03-25T12:23:14;6.43;;;2.93;;
3949;SDS011;53057;50.988;6.314;2024-03-25T12:25:41;4.13;;;2.50;;
3949;SDS011;53057;50.988;6.314;2024-03-25T12:28:08;4.60;;;2.60;;
3949;SDS011;53057;50.988;6.314;2024-03-25T12:30:41;5.00;;;2.33;;
3949;SDS011;53057;50.988;6.314;2024-03-25T12:33:15;9.10;;;3.20;;
3949;SDS011;53057;50.988;6.314;2024-03-25T12:35:41;10.13;;;3.37;;
3949;SDS011;53057;50.988;6.314;2024-03-25T12:38:08;5.93;;;2.93;;
3949;SDS011;53057;50.988;6.314;2024-03-25T12:40:34;12.73;;;4.27;;
3949;SDS011;53057;50.988;6.314;2024-03-25T12:43:00;8.27;;;2.40;;
3949;SDS011;53057;50.988;6.314;2024-03-25T12:45:25;4.93;;;3.10;;
3949;SDS011;53057;50.988;6.314;2024-03-25T12:47:51;8.40;;;3.27;;
3949;SDS011;53057;50.988;6.314;2024-03-25T12:50:17;8.17;;;3.30;;
3949;SDS011;53057;50.988;6.314;2024-03-25T12:52:45;6.53;;;3.43;;
3949;SDS011;53057;50.988;6.314;2024-03-25T12:55:11;3.50;;;2.80;;
3949;SDS011;53057;50.988;6.314;2024-03-25T12:57:36;5.63;;;3.00;;
3949;SDS011;53057;50.988;6.314;2024-03-25T13:00:03;3.17;;;2.63;;
3949;SDS011;53057;50.988;6.314;2024-03-25T13:02:33;9.87;;;3.33;;
3949;SDS011;53057;50.988;6.314;2024-03-25T13:04:59;5.00;;;2.30;;
3949;SDS011;53057;50.988;6.314;2024-03-25T13:07:25;9.63;;;3.30;;
3949;SDS011;53057;50.988;6.314;2024-03-25T13:09:51;8.20;;;3.60;;
3949;SDS011;53057;50.988;6.314;2024-03-25T13:12:16;8.90;;;3.70;;
3949;SDS011;53057;50.988;6.314;2024-03-25T13:14:42;16.57;;;3.90;;
3949;SDS011;53057;50.988;6.314;2024-03-25T13:17:08;5.93;;;3.43;;
3949;SDS011;53057;50.988;6.314;2024-03-25T13:19:34;8.07;;;3.10;;
3949;SDS011;53057;50.988;6.314;2024-03-25T13:22:00;8.67;;;3.90;;
3949;SDS011;53057;50.988;6.314;2024-03-25T13:24:25;8.83;;;3.23;;
3949;SDS011;53057;50.988;6.314;2024-03-25T13:26:52;14.90;;;3.70;;
3949;SDS011;53057;50.988;6.314;2024-03-25T13:29:18;8.00;;;3.40;;
3949;SDS011;53057;50.988;6.314;2024-03-25T13:31:45;20.47;;;4.03;;
3949;SDS011;53057;50.988;6.314;2024-03-25T13:34:10;7.87;;;2.90;;
3949;SDS011;53057;50.988;6.314;2024-03-25T13:36:36;4.07;;;2.83;;
3949;SDS011;53057;50.988;6.314;2024-03-25T13:39:02;7.83;;;3.60;;
3949;SDS011;53057;50.988;6.314;2024-03-25T13:41:29;16.57;;;3.87;;
3949;SDS011;53057;50.988;6.314;2024-03-25T13:43:54;5.20;;;3.27;;
3949;SDS011;53057;50.988;6.314;2024-03-25T13:46:20;6.80;;;2.87;;
3949;SDS011;53057;50.988;6.314;2024-03-25T13:48:47;17.87;;;2.77;;
3949;SDS011;53057;50.988;6.314;2024-03-25T13:51:12;5.83;;;4.37;;
3949;SDS011;53057;50.988;6.314;2024-03-25T13:53:38;6.20;;;3.60;;
3949;SDS011;53057;50.988;6.314;2024-03-25T13:56:05;6.07;;;2.70;;
3949;SDS011;53057;50.988;6.314;2024-03-25T13:58:31;4.13;;;2.50;;
3949;SDS011;53057;50.988;6.314;2024-03-25T14:00:57;5.77;;;3.77;;
3949;SDS011;53057;50.988;6.314;2024-03-25T14:03:23;14.60;;;3.50;;
3949;SDS011;53057;50.988;6.314;2024-03-25T14:05:49;4.90;;;2.67;;
3949;SDS011;53057;50.988;6.314;2024-03-25T14:08:15;6.50;;;2.90;;
3949;SDS011;53057;50.988;6.314;2024-03-25T14:10:42;5.97;;;2.80;;
3949;SDS011;53057;50.988;6.314;2024-03-25T14:13:08;9.63;;;4.87;;
3949;SDS011;53057;50.988;6.314;2024-03-25T14:15:34;12.13;;;4.30;;
3949;SDS011;53057;50.988;6.314;2024-03-25T14:18:00;5.30;;;3.30;;
3949;SDS011;53057;50.988;6.314;2024-03-25T14:20:26;9.07;;;3.67;;
3949;SDS011;53057;50.988;6.314;2024-03-25T14:22:51;8.07;;;3.57;;
3949;SDS011;53057;50.988;6.314;2024-03-25T14:25:17;8.90;;;3.43;;
3949;SDS011;53057;50.988;6.314;2024-03-25T14:27:43;4.20;;;2.43;;
3949;SDS011;53057;50.988;6.314;2024-03-25T14:30:09;5.37;;;2.73;;
3949;SDS011;53057;50.988;6.314;2024-03-25T14:32:40;4.60;;;1.97;;
3949;SDS011;53057;50.988;6.314;2024-03-25T14:35:06;7.13;;;2.37;;
3949;SDS011;53057;50.988;6.314;2024-03-25T14:37:32;5.70;;;3.43;;
3949;SDS011;53057;50.988;6.314;2024-03-25T14:39:58;3.60;;;2.43;;
3949;SDS011;53057;50.988;6.314;2024-03-25T14:42:24;5.90;;;2.63;;